REV6ND LXGB-LXGB
Flight info
| Callsign | REV6ND |
|---|---|
| Flight time | N/A |
| Altitude | 4000 |
| Route | XRAY DCT 09D05 DCT 09D06 DCT RIPRA DCT UNBUT DCT XAVIR DCT YANKE DCT STAY1/0050 361119N0051910WFL040 DCT 27D10 DCT 27D06 DCT 27D05 DCT YANKE |
| Aircraft | F406/L-DFGIP3RVY/S |
Departure
| Time | 2026-05-06 13:54 |
|---|---|
| Airport | Gibraltar Airport (LXGB) |
Arrival
| Time | N/A |
|---|---|
| Airport | Gibraltar Airport (LXGB) |
| Time | Latitude | Longitude | Altitude | Speed | Heading |
|---|---|---|---|---|---|
| 2026-05-06 13:46 | 36.15329 | -5.34393 | 40 ft | 0 kts | 312° |
| 2026-05-06 13:49 | 36.15331 | -5.34394 | 40 ft | 0 kts | 335° |
| 2026-05-06 13:49 | 36.15332 | -5.34395 | 40 ft | 0 kts | 354° |
| 2026-05-06 13:49 | 36.15334 | -5.34393 | 40 ft | 0 kts | 36° |
| 2026-05-06 13:50 | 36.15335 | -5.34390 | 40 ft | 2 kts | 69° |
| 2026-05-06 13:50 | 36.15335 | -5.34375 | 13 ft | 1 kts | 121° |
| 2026-05-06 13:50 | 36.15327 | -5.34367 | 12 ft | 0 kts | 176° |
| 2026-05-06 13:50 | 36.15302 | -5.34375 | 11 ft | 6 kts | 197° |
| 2026-05-06 13:51 | 36.15285 | -5.34382 | 10 ft | 7 kts | 200° |
| 2026-05-06 13:51 | 36.15243 | -5.34399 | 9 ft | 6 kts | 187° |
| 2026-05-06 13:51 | 36.15236 | -5.34394 | 9 ft | 2 kts | 111° |
| 2026-05-06 13:51 | 36.15237 | -5.34366 | 9 ft | 9 kts | 86° |
| 2026-05-06 13:52 | 36.15240 | -5.34258 | 10 ft | 9 kts | 99° |
| 2026-05-06 13:52 | 36.15222 | -5.34237 | 10 ft | 6 kts | 169° |
| 2026-05-06 13:52 | 36.15177 | -5.34227 | 10 ft | 10 kts | 171° |
| 2026-05-06 13:52 | 36.15154 | -5.34226 | 10 ft | 1 kts | 202° |
| 2026-05-06 13:53 | 36.15147 | -5.34239 | 10 ft | 0 kts | 263° |
| 2026-05-06 13:53 | 36.15128 | -5.34576 | 13 ft | 96 kts | 268° |
| 2026-05-06 13:53 | 36.15116 | -5.35021 | 40 ft | 125 kts | 267° |
| 2026-05-06 13:53 | 36.15118 | -5.35135 | 68 ft | 127 kts | 266° |
| 2026-05-06 13:54 | 36.15133 | -5.35727 | 211 ft | 148 kts | 265° |
| 2026-05-06 13:54 | 36.15136 | -5.35891 | 234 ft | 140 kts | 266° |
| 2026-05-06 13:54 | 36.15158 | -5.36721 | 934 ft | 140 kts | 271° |
| 2026-05-06 13:54 | 36.15013 | -5.37928 | 1644 ft | 155 kts | 240° |
| 2026-05-06 13:55 | 36.14311 | -5.38981 | 2062 ft | 159 kts | 246° |
| 2026-05-06 13:55 | 36.13728 | -5.40118 | 2393 ft | 160 kts | 225° |
| 2026-05-06 13:55 | 36.12664 | -5.40627 | 2658 ft | 166 kts | 194° |
| 2026-05-06 13:55 | 36.11510 | -5.40623 | 2914 ft | 167 kts | 181° |
| 2026-05-06 13:56 | 36.10352 | -5.40513 | 3190 ft | 166 kts | 182° |
| 2026-05-06 13:56 | 36.09202 | -5.40475 | 3446 ft | 165 kts | 185° |
| 2026-05-06 13:56 | 36.08051 | -5.40440 | 3722 ft | 166 kts | 181° |
| 2026-05-06 13:56 | 36.06900 | -5.40355 | 4002 ft | 167 kts | 181° |
| 2026-05-06 13:57 | 36.05681 | -5.40302 | 4004 ft | 184 kts | 182° |
| 2026-05-06 13:57 | 36.04386 | -5.40235 | 3988 ft | 185 kts | 180° |
| 2026-05-06 13:57 | 36.03106 | -5.40164 | 3984 ft | 184 kts | 180° |
| 2026-05-06 13:57 | 36.02564 | -5.40103 | 3977 ft | 183 kts | 172° |
| 2026-05-06 13:58 | 36.01530 | -5.39342 | 3975 ft | 188 kts | 132° |
| 2026-05-06 13:58 | 36.01124 | -5.38406 | 3976 ft | 190 kts | 106° |
| 2026-05-06 13:58 | 36.00990 | -5.36954 | 3995 ft | 191 kts | 92° |
| 2026-05-06 13:58 | 36.00961 | -5.35306 | 4006 ft | 192 kts | 88° |
| 2026-05-06 13:59 | 36.00977 | -5.33646 | 4001 ft | 194 kts | 88° |
| 2026-05-06 13:59 | 36.00947 | -5.31991 | 4001 ft | 192 kts | 95° |
| 2026-05-06 13:59 | 36.00987 | -5.30384 | 3999 ft | 188 kts | 68° |
| 2026-05-06 13:59 | 36.01752 | -5.29118 | 4004 ft | 184 kts | 37° |
| 2026-05-06 14:00 | 36.02762 | -5.28153 | 3974 ft | 183 kts | 31° |
| 2026-05-06 14:00 | 36.03834 | -5.27317 | 3967 ft | 182 kts | 27° |
| 2026-05-06 14:00 | 36.04964 | -5.26646 | 3973 ft | 178 kts | 11° |
| 2026-05-06 14:00 | 36.06159 | -5.26376 | 3975 ft | 176 kts | 2° |
| 2026-05-06 14:01 | 36.07379 | -5.26334 | 3985 ft | 175 kts | 355° |
| 2026-05-06 14:01 | 36.08598 | -5.26418 | 3976 ft | 175 kts | 352° |
| 2026-05-06 14:01 | 36.09796 | -5.26659 | 3977 ft | 175 kts | 345° |
| 2026-05-06 14:01 | 36.10987 | -5.26971 | 3972 ft | 175 kts | 345° |
| 2026-05-06 14:02 | 36.12180 | -5.27274 | 3975 ft | 175 kts | 345° |
| 2026-05-06 14:02 | 36.13376 | -5.27573 | 3975 ft | 175 kts | 345° |
| 2026-05-06 14:02 | 36.14539 | -5.27882 | 3976 ft | 162 kts | 343° |
| 2026-05-06 14:02 | 36.15182 | -5.28209 | 4000 ft | 141 kts | 331° |
| 2026-05-06 14:03 | 36.15986 | -5.28807 | 4099 ft | 132 kts | 323° |
| 2026-05-06 14:03 | 36.16758 | -5.29447 | 4130 ft | 136 kts | 319° |
| 2026-05-06 14:03 | 36.17406 | -5.30284 | 4163 ft | 135 kts | 319° |
| 2026-05-06 14:03 | 36.18282 | -5.30774 | 4218 ft | 143 kts | 353° |
| 2026-05-06 14:04 | 36.19087 | -5.30516 | 4236 ft | 149 kts | 22° |
| 2026-05-06 14:04 | 36.19576 | -5.30196 | 4285 ft | 148 kts | 28° |
| 2026-05-06 14:04 | 36.20454 | -5.29506 | 4198 ft | 149 kts | 31° |
| 2026-05-06 14:04 | 36.21178 | -5.28616 | 4149 ft | 151 kts | 65° |
| 2026-05-06 14:05 | 36.21192 | -5.27356 | 4233 ft | 152 kts | 109° |
| 2026-05-06 14:05 | 36.20489 | -5.26426 | 4173 ft | 154 kts | 151° |
| 2026-05-06 14:05 | 36.19480 | -5.26337 | 4133 ft | 145 kts | 207° |
| 2026-05-06 14:05 | 36.18835 | -5.27184 | 4118 ft | 139 kts | 260° |
| 2026-05-06 14:06 | 36.18852 | -5.28199 | 4175 ft | 135 kts | 278° |
| 2026-05-06 14:06 | 36.18926 | -5.29365 | 4191 ft | 139 kts | 276° |
| 2026-05-06 14:06 | 36.18966 | -5.30594 | 4289 ft | 138 kts | 277° |
| 2026-05-06 14:06 | 36.18999 | -5.31817 | 4266 ft | 147 kts | 275° |
| 2026-05-06 14:07 | 36.18800 | -5.32777 | 4282 ft | 155 kts | 245° |
| 2026-05-06 14:07 | 36.18511 | -5.34066 | 4235 ft | 152 kts | 268° |
| 2026-05-06 14:07 | 36.18293 | -5.35333 | 4314 ft | 155 kts | 256° |
| 2026-05-06 14:07 | 36.18099 | -5.36155 | 4319 ft | 152 kts | 265° |
| 2026-05-06 14:08 | 36.18059 | -5.37453 | 4224 ft | 150 kts | 263° |
| 2026-05-06 14:08 | 36.17929 | -5.38354 | 4210 ft | 147 kts | 260° |
| 2026-05-06 14:08 | 36.17298 | -5.39336 | 4162 ft | 152 kts | 216° |
| 2026-05-06 14:08 | 36.16393 | -5.39974 | 4128 ft | 147 kts | 214° |
| 2026-05-06 14:09 | 36.15871 | -5.40947 | 4069 ft | 136 kts | 268° |
| 2026-05-06 14:09 | 36.16201 | -5.41934 | 4035 ft | 129 kts | 323° |
| 2026-05-06 14:09 | 36.17073 | -5.42071 | 4012 ft | 132 kts | 18° |
| 2026-05-06 14:09 | 36.17676 | -5.41230 | 4023 ft | 140 kts | 68° |
| 2026-05-06 14:10 | 36.17990 | -5.40093 | 4093 ft | 141 kts | 70° |
| 2026-05-06 14:10 | 36.18258 | -5.38899 | 4166 ft | 146 kts | 66° |
| 2026-05-06 14:10 | 36.18514 | -5.37689 | 4168 ft | 149 kts | 82° |
| 2026-05-06 14:10 | 36.18767 | -5.36449 | 4160 ft | 149 kts | 75° |
| 2026-05-06 14:11 | 36.19001 | -5.35182 | 4225 ft | 146 kts | 71° |
| 2026-05-06 14:11 | 36.19167 | -5.33934 | 4146 ft | 159 kts | 81° |
| 2026-05-06 14:11 | 36.19559 | -5.32707 | 4232 ft | 152 kts | 54° |
| 2026-05-06 14:11 | 36.19871 | -5.31456 | 4226 ft | 152 kts | 82° |
| 2026-05-06 14:12 | 36.19637 | -5.30219 | 4219 ft | 155 kts | 127° |
| 2026-05-06 14:12 | 36.18913 | -5.29231 | 4224 ft | 156 kts | 135° |
| 2026-05-06 14:12 | 36.18060 | -5.28408 | 4187 ft | 156 kts | 162° |
| 2026-05-06 14:12 | 36.17000 | -5.28188 | 4220 ft | 153 kts | 177° |
| 2026-05-06 14:13 | 36.15931 | -5.27956 | 4209 ft | 158 kts | 166° |
| 2026-05-06 14:13 | 36.15219 | -5.27730 | 4195 ft | 159 kts | 171° |
| 2026-05-06 14:13 | 36.14335 | -5.27550 | 4169 ft | 157 kts | 173° |
| 2026-05-06 14:13 | 36.13284 | -5.27304 | 4078 ft | 150 kts | 170° |
| 2026-05-06 14:14 | 36.12302 | -5.27009 | 3995 ft | 142 kts | 159° |
| 2026-05-06 14:14 | 36.11697 | -5.26109 | 3976 ft | 138 kts | 103° |
| 2026-05-06 14:14 | 36.11861 | -5.25035 | 3988 ft | 131 kts | 55° |
| 2026-05-06 14:14 | 36.12360 | -5.24064 | 3987 ft | 131 kts | 51° |
| 2026-05-06 14:15 | 36.12897 | -5.23163 | 3969 ft | 130 kts | 45° |
| 2026-05-06 14:15 | 36.13665 | -5.22823 | 3977 ft | 118 kts | 342° |
| 2026-05-06 14:15 | 36.14288 | -5.23398 | 3971 ft | 112 kts | 313° |
| 2026-05-06 14:15 | 36.14807 | -5.24139 | 3970 ft | 113 kts | 308° |
| 2026-05-06 14:16 | 36.15090 | -5.24696 | 3974 ft | 113 kts | 292° |
| 2026-05-06 14:16 | 36.15247 | -5.25263 | 3990 ft | 115 kts | 289° |
| 2026-05-06 14:16 | 36.15477 | -5.26234 | 4050 ft | 120 kts | 290° |
| 2026-05-06 14:16 | 36.15580 | -5.27283 | 4148 ft | 128 kts | 272° |
| 2026-05-06 14:17 | 36.15555 | -5.28399 | 4167 ft | 134 kts | 272° |
| 2026-05-06 14:17 | 36.15555 | -5.29180 | 4190 ft | 136 kts | 269° |
| 2026-05-06 14:17 | 36.15487 | -5.29980 | 4221 ft | 141 kts | 267° |
| 2026-05-06 14:17 | 36.15443 | -5.31229 | 4337 ft | 143 kts | 271° |
| 2026-05-06 14:18 | 36.15451 | -5.32485 | 4261 ft | 163 kts | 278° |
| 2026-05-06 14:18 | 36.15430 | -5.33390 | 4669 ft | 141 kts | 271° |
| 2026-05-06 14:18 | 36.15384 | -5.33793 | 4733 ft | 140 kts | 258° |
| 2026-05-06 14:18 | 36.15082 | -5.34925 | 4961 ft | 128 kts | 249° |
| 2026-05-06 14:19 | 36.14911 | -5.35918 | 5211 ft | 111 kts | 265° |
| 2026-05-06 14:19 | 36.14630 | -5.36812 | 5573 ft | 121 kts | 256° |
| 2026-05-06 14:19 | 36.14489 | -5.37982 | 5935 ft | 161 kts | 253° |
| 2026-05-06 14:19 | 36.14069 | -5.39431 | 6106 ft | 193 kts | 248° |
| 2026-05-06 14:20 | 36.13140 | -5.40674 | 6245 ft | 207 kts | 208° |
| 2026-05-06 14:20 | 36.11727 | -5.40999 | 6346 ft | 212 kts | 176° |
| 2026-05-06 14:20 | 36.10284 | -5.40745 | 6455 ft | 213 kts | 173° |
| 2026-05-06 14:20 | 36.08797 | -5.40461 | 6570 ft | 213 kts | 176° |